RYR9BR ESSA-EPKK
Flight info
| Callsign | RYR9BR |
|---|---|
| Flight time | N/A |
| Altitude | 37000 |
| Route | NOSLI N850 ABAMA DCT PENOR DCT POLON N133 NEGUV M66 KUKAM |
| Aircraft | B738/M-SDE3FGILRWY/SB1 |
Departure
| Time | 2026-05-06 16:57 |
|---|---|
| Airport | Stockholm-Arlanda Airport (ESSA) |
Arrival
| Time | N/A |
|---|---|
| Airport | Kraków John Paul II International Airport (EPKK) |
| Time | Latitude | Longitude | Altitude | Speed | Heading |
|---|---|---|---|---|---|
| 2026-05-06 16:24 | 59.64742 | 17.92521 | 111 ft | 0 kts | 36° |
| 2026-05-06 16:50 | 59.64722 | 17.92494 | 110 ft | 4 kts | 30° |
| 2026-05-06 16:50 | 59.64700 | 17.92478 | 111 ft | 4 kts | 341° |
| 2026-05-06 16:50 | 59.64692 | 17.92500 | 108 ft | 2 kts | 286° |
| 2026-05-06 16:50 | 59.64692 | 17.92503 | 108 ft | 1 kts | 286° |
| 2026-05-06 16:54 | 59.64694 | 17.92485 | 111 ft | 5 kts | 286° |
| 2026-05-06 16:54 | 59.64714 | 17.92355 | 109 ft | 13 kts | 286° |
| 2026-05-06 16:54 | 59.64739 | 17.92180 | 110 ft | 13 kts | 286° |
| 2026-05-06 16:54 | 59.64811 | 17.92080 | 106 ft | 16 kts | 5° |
| 2026-05-06 16:55 | 59.64942 | 17.92124 | 106 ft | 23 kts | 11° |
| 2026-05-06 16:55 | 59.65121 | 17.92189 | 106 ft | 29 kts | 10° |
| 2026-05-06 16:55 | 59.65331 | 17.92267 | 104 ft | 31 kts | 9° |
| 2026-05-06 16:55 | 59.65539 | 17.92339 | 104 ft | 29 kts | 10° |
| 2026-05-06 16:56 | 59.65734 | 17.92410 | 104 ft | 28 kts | 10° |
| 2026-05-06 16:56 | 59.65890 | 17.92440 | 106 ft | 15 kts | 324° |
| 2026-05-06 16:56 | 59.65922 | 17.92256 | 110 ft | 14 kts | 281° |
| 2026-05-06 16:56 | 59.65910 | 17.92118 | 112 ft | 10 kts | 205° |
| 2026-05-06 16:57 | 59.65815 | 17.92079 | 111 ft | 28 kts | 190° |
| 2026-05-06 16:57 | 59.65375 | 17.91921 | 104 ft | 99 kts | 189° |
| 2026-05-06 16:57 | 59.64493 | 17.91607 | 147 ft | 150 kts | 188° |
| 2026-05-06 16:57 | 59.63440 | 17.91211 | 794 ft | 156 kts | 188° |
| 2026-05-06 16:58 | 59.62321 | 17.90837 | 1442 ft | 170 kts | 199° |
| 2026-05-06 16:58 | 59.61326 | 17.89480 | 1781 ft | 189 kts | 241° |
| 2026-05-06 16:58 | 59.60587 | 17.87166 | 2202 ft | 206 kts | 239° |
| 2026-05-06 16:58 | 59.59780 | 17.84790 | 2808 ft | 210 kts | 239° |
| 2026-05-06 16:59 | 59.58957 | 17.82385 | 3518 ft | 213 kts | 239° |
| 2026-05-06 16:59 | 59.58174 | 17.79794 | 4015 ft | 230 kts | 245° |
| 2026-05-06 16:59 | 59.57413 | 17.76842 | 4520 ft | 248 kts | 246° |
| 2026-05-06 16:59 | 59.56460 | 17.73965 | 5400 ft | 257 kts | 224° |
| 2026-05-06 17:00 | 59.54933 | 17.72056 | 6374 ft | 262 kts | 210° |
| 2026-05-06 17:00 | 59.53294 | 17.70424 | 7254 ft | 266 kts | 209° |
| 2026-05-06 17:00 | 59.51627 | 17.68807 | 8139 ft | 268 kts | 209° |
| 2026-05-06 17:00 | 59.49949 | 17.67184 | 9060 ft | 270 kts | 209° |
| 2026-05-06 17:01 | 59.48249 | 17.65536 | 9984 ft | 273 kts | 210° |
| 2026-05-06 17:01 | 59.46522 | 17.63853 | 10563 ft | 287 kts | 210° |
| 2026-05-06 17:01 | 59.44655 | 17.62021 | 10760 ft | 312 kts | 210° |
| 2026-05-06 17:01 | 59.42647 | 17.60050 | 11077 ft | 331 kts | 210° |
| 2026-05-06 17:02 | 59.40548 | 17.57998 | 11633 ft | 341 kts | 211° |
| 2026-05-06 17:02 | 59.38418 | 17.55923 | 12489 ft | 342 kts | 212° |
| 2026-05-06 17:02 | 59.36257 | 17.53822 | 13395 ft | 343 kts | 212° |
| 2026-05-06 17:02 | 59.34109 | 17.51734 | 14164 ft | 345 kts | 213° |
| 2026-05-06 17:03 | 59.31969 | 17.49653 | 14998 ft | 343 kts | 213° |
| 2026-05-06 17:03 | 59.29834 | 17.47582 | 15843 ft | 341 kts | 214° |
| 2026-05-06 17:03 | 59.27711 | 17.45521 | 16643 ft | 341 kts | 214° |
| 2026-05-06 17:03 | 59.25584 | 17.43456 | 17406 ft | 342 kts | 214° |
| 2026-05-06 17:04 | 59.23450 | 17.41387 | 18140 ft | 343 kts | 214° |
| 2026-05-06 17:04 | 59.21305 | 17.39309 | 18763 ft | 345 kts | 214° |
| 2026-05-06 17:04 | 59.19146 | 17.37220 | 19293 ft | 349 kts | 214° |
| 2026-05-06 17:04 | 59.16960 | 17.35109 | 19806 ft | 353 kts | 214° |
| 2026-05-06 17:05 | 59.14746 | 17.32974 | 20349 ft | 356 kts | 214° |
| 2026-05-06 17:05 | 59.12509 | 17.30823 | 20903 ft | 359 kts | 214° |
| 2026-05-06 17:05 | 59.10260 | 17.28663 | 21435 ft | 362 kts | 214° |
| 2026-05-06 17:05 | 59.07999 | 17.26485 | 21939 ft | 365 kts | 215° |
| 2026-05-06 17:06 | 59.05893 | 17.23795 | 22422 ft | 359 kts | 225° |
| 2026-05-06 17:06 | 59.03971 | 17.20678 | 22935 ft | 361 kts | 226° |
| 2026-05-06 17:06 | 59.02048 | 17.17511 | 23426 ft | 364 kts | 226° |
| 2026-05-06 17:06 | 59.00105 | 17.14320 | 23843 ft | 367 kts | 226° |
| 2026-05-06 17:07 | 58.98145 | 17.11122 | 24249 ft | 370 kts | 225° |
| 2026-05-06 17:07 | 58.96139 | 17.07871 | 24684 ft | 371 kts | 225° |
| 2026-05-06 17:07 | 58.94149 | 17.04662 | 25097 ft | 374 kts | 225° |
| 2026-05-06 17:07 | 58.92140 | 17.01436 | 25474 ft | 377 kts | 225° |
| 2026-05-06 17:08 | 58.90118 | 16.98197 | 25825 ft | 379 kts | 225° |
| 2026-05-06 17:08 | 58.88075 | 16.94933 | 26201 ft | 382 kts | 225° |
| 2026-05-06 17:08 | 58.86025 | 16.91664 | 26581 ft | 383 kts | 225° |
| 2026-05-06 17:08 | 58.83961 | 16.88377 | 26926 ft | 386 kts | 225° |
| 2026-05-06 17:09 | 58.81882 | 16.85073 | 27261 ft | 388 kts | 225° |
| 2026-05-06 17:09 | 58.79788 | 16.81748 | 27607 ft | 391 kts | 224° |
| 2026-05-06 17:09 | 58.77683 | 16.78413 | 27933 ft | 393 kts | 224° |
| 2026-05-06 17:09 | 58.75565 | 16.75062 | 28254 ft | 395 kts | 224° |
| 2026-05-06 17:10 | 58.73438 | 16.71702 | 28566 ft | 397 kts | 224° |
| 2026-05-06 17:10 | 58.71293 | 16.68320 | 28861 ft | 399 kts | 224° |
| 2026-05-06 17:10 | 58.69140 | 16.64929 | 29177 ft | 401 kts | 224° |
| 2026-05-06 17:10 | 58.66957 | 16.61576 | 29610 ft | 403 kts | 219° |
| 2026-05-06 17:11 | 58.64389 | 16.59137 | 30078 ft | 413 kts | 205° |
| 2026-05-06 17:11 | 58.61577 | 16.57844 | 30515 ft | 420 kts | 196° |
| 2026-05-06 17:11 | 58.58624 | 16.57589 | 30839 ft | 434 kts | 184° |
| 2026-05-06 17:11 | 58.55614 | 16.58175 | 31155 ft | 436 kts | 182° |
| 2026-05-06 17:12 | 58.52598 | 16.58870 | 31480 ft | 436 kts | 181° |
| 2026-05-06 17:12 | 58.49580 | 16.59593 | 31813 ft | 436 kts | 181° |
| 2026-05-06 17:12 | 58.46577 | 16.60303 | 32157 ft | 435 kts | 181° |
| 2026-05-06 17:12 | 58.43582 | 16.60989 | 32498 ft | 433 kts | 181° |
| 2026-05-06 17:13 | 58.40548 | 16.61664 | 32822 ft | 433 kts | 182° |
| 2026-05-06 17:13 | 58.37556 | 16.62313 | 33125 ft | 433 kts | 182° |
| 2026-05-06 17:13 | 58.34562 | 16.62952 | 33439 ft | 432 kts | 182° |
| 2026-05-06 17:13 | 58.31583 | 16.63583 | 33786 ft | 431 kts | 182° |
| 2026-05-06 17:14 | 58.28603 | 16.64211 | 34070 ft | 430 kts | 182° |
| 2026-05-06 17:14 | 58.25626 | 16.64835 | 34268 ft | 431 kts | 182° |
| 2026-05-06 17:14 | 58.22638 | 16.65460 | 34462 ft | 432 kts | 181° |
| 2026-05-06 17:14 | 58.19646 | 16.66086 | 34674 ft | 433 kts | 181° |
| 2026-05-06 17:15 | 58.16648 | 16.66713 | 34901 ft | 433 kts | 181° |
| 2026-05-06 17:15 | 58.13653 | 16.67339 | 35102 ft | 434 kts | 181° |
| 2026-05-06 17:15 | 58.10652 | 16.67966 | 35304 ft | 434 kts | 181° |
| 2026-05-06 17:15 | 58.07651 | 16.68592 | 35536 ft | 434 kts | 181° |
| 2026-05-06 17:16 | 58.04651 | 16.69216 | 35731 ft | 434 kts | 181° |
| 2026-05-06 17:16 | 58.01644 | 16.69841 | 35915 ft | 435 kts | 180° |
| 2026-05-06 17:16 | 57.98631 | 16.70466 | 36109 ft | 435 kts | 180° |
| 2026-05-06 17:16 | 57.95626 | 16.71089 | 36328 ft | 435 kts | 180° |
| 2026-05-06 17:17 | 57.92615 | 16.71712 | 36528 ft | 435 kts | 180° |
| 2026-05-06 17:17 | 57.89604 | 16.72333 | 36699 ft | 436 kts | 180° |
| 2026-05-06 17:17 | 57.86584 | 16.72955 | 36882 ft | 436 kts | 180° |
| 2026-05-06 17:18 | 57.80527 | 16.74197 | 36975 ft | 440 kts | 180° |
| 2026-05-06 17:18 | 57.74468 | 16.75441 | 36980 ft | 436 kts | 180° |
| 2026-05-06 17:19 | 57.68452 | 16.76673 | 36979 ft | 433 kts | 180° |
| 2026-05-06 17:19 | 57.62483 | 16.77889 | 36975 ft | 431 kts | 180° |
| 2026-05-06 17:20 | 57.56525 | 16.79096 | 36974 ft | 430 kts | 180° |
| 2026-05-06 17:20 | 57.50584 | 16.80294 | 36983 ft | 430 kts | 180° |
| 2026-05-06 17:21 | 57.45603 | 16.81296 | 36985 ft | 431 kts | 180° |
| 2026-05-06 17:21 | 57.39626 | 16.82495 | 36979 ft | 433 kts | 180° |
| 2026-05-06 17:22 | 57.33624 | 16.83695 | 36977 ft | 435 kts | 179° |
| 2026-05-06 17:22 | 57.27589 | 16.84900 | 36973 ft | 437 kts | 179° |
| 2026-05-06 17:23 | 57.21524 | 16.86107 | 36964 ft | 438 kts | 179° |
| 2026-05-06 17:23 | 57.15470 | 16.87310 | 36963 ft | 437 kts | 179° |
| 2026-05-06 17:24 | 57.09439 | 16.88503 | 36971 ft | 435 kts | 179° |
| 2026-05-06 17:24 | 57.03429 | 16.89687 | 36975 ft | 434 kts | 179° |
| 2026-05-06 17:25 | 56.97417 | 16.90867 | 36967 ft | 434 kts | 179° |
| 2026-05-06 17:25 | 56.91409 | 16.92042 | 36964 ft | 434 kts | 179° |
| 2026-05-06 17:26 | 56.85403 | 16.93212 | 36963 ft | 434 kts | 179° |
| 2026-05-06 17:26 | 56.79389 | 16.94381 | 36962 ft | 435 kts | 179° |
| 2026-05-06 17:27 | 56.73356 | 16.95550 | 36960 ft | 436 kts | 179° |
| 2026-05-06 17:27 | 56.67311 | 16.96718 | 36958 ft | 437 kts | 179° |
| 2026-05-06 17:28 | 56.61259 | 16.97883 | 36958 ft | 438 kts | 179° |
| 2026-05-06 17:28 | 56.55151 | 16.99055 | 36957 ft | 439 kts | 179° |
| 2026-05-06 17:29 | 56.49075 | 17.00218 | 36956 ft | 440 kts | 179° |
| 2026-05-06 17:29 | 56.42986 | 17.01379 | 36956 ft | 440 kts | 179° |
| 2026-05-06 17:30 | 56.36894 | 17.02538 | 36951 ft | 440 kts | 179° |
| 2026-05-06 17:30 | 56.30804 | 17.03692 | 36952 ft | 440 kts | 179° |
| 2026-05-06 17:31 | 56.24712 | 17.04843 | 36946 ft | 440 kts | 179° |
| 2026-05-06 17:31 | 56.18641 | 17.05987 | 36933 ft | 437 kts | 179° |
| 2026-05-06 17:32 | 56.12604 | 17.07121 | 36935 ft | 435 kts | 179° |
| 2026-05-06 17:32 | 56.06600 | 17.08244 | 36937 ft | 433 kts | 179° |
| 2026-05-06 17:33 | 56.00608 | 17.09360 | 36942 ft | 433 kts | 179° |
| 2026-05-06 17:33 | 55.94617 | 17.10473 | 36939 ft | 433 kts | 179° |
| 2026-05-06 17:34 | 55.88615 | 17.11585 | 36936 ft | 434 kts | 179° |
| 2026-05-06 17:34 | 55.82591 | 17.12698 | 36933 ft | 436 kts | 179° |
| 2026-05-06 17:35 | 55.76508 | 17.13818 | 36930 ft | 438 kts | 179° |
| 2026-05-06 17:35 | 55.70441 | 17.14934 | 36926 ft | 439 kts | 179° |
| 2026-05-06 17:36 | 55.61394 | 17.17700 | 36915 ft | 449 kts | 163° |
| 2026-05-06 17:36 | 55.55590 | 17.21868 | 36922 ft | 451 kts | 162° |
| 2026-05-06 17:37 | 55.49783 | 17.26125 | 36910 ft | 451 kts | 162° |
| 2026-05-06 17:37 | 55.43979 | 17.30310 | 36916 ft | 450 kts | 163° |
| 2026-05-06 17:38 | 55.38128 | 17.34470 | 36900 ft | 450 kts | 163° |
| 2026-05-06 17:38 | 55.32320 | 17.38572 | 36900 ft | 449 kts | 163° |
| 2026-05-06 17:39 | 55.26522 | 17.42652 | 36894 ft | 448 kts | 163° |
| 2026-05-06 17:39 | 55.20743 | 17.46708 | 36894 ft | 447 kts | 163° |
| 2026-05-06 17:40 | 55.14978 | 17.50741 | 36890 ft | 446 kts | 163° |
| 2026-05-06 17:40 | 55.09221 | 17.54756 | 36895 ft | 446 kts | 163° |
| 2026-05-06 17:41 | 55.03444 | 17.58772 | 36880 ft | 448 kts | 163° |
| 2026-05-06 17:41 | 54.97673 | 17.62774 | 36882 ft | 443 kts | 163° |
| 2026-05-06 17:42 | 54.91969 | 17.66720 | 36877 ft | 440 kts | 163° |
| 2026-05-06 17:42 | 54.86280 | 17.70639 | 36880 ft | 439 kts | 163° |
| 2026-05-06 17:43 | 54.80604 | 17.74536 | 36877 ft | 438 kts | 164° |
| 2026-05-06 17:43 | 54.74893 | 17.78446 | 36873 ft | 438 kts | 164° |
| 2026-05-06 17:44 | 54.69215 | 17.82322 | 36867 ft | 439 kts | 164° |
| 2026-05-06 17:44 | 54.63530 | 17.86191 | 36871 ft | 440 kts | 164° |
| 2026-05-06 17:45 | 54.57929 | 17.89991 | 36868 ft | 441 kts | 164° |
| 2026-05-06 17:45 | 54.52212 | 17.93860 | 36858 ft | 441 kts | 164° |
| 2026-05-06 17:46 | 54.46488 | 17.97721 | 36842 ft | 442 kts | 164° |
| 2026-05-06 17:46 | 54.40755 | 18.01577 | 36847 ft | 443 kts | 164° |
| 2026-05-06 17:47 | 54.35019 | 18.05425 | 36839 ft | 443 kts | 164° |
| 2026-05-06 17:47 | 54.29273 | 18.09266 | 36832 ft | 443 kts | 164° |
| 2026-05-06 17:48 | 54.23538 | 18.13089 | 36839 ft | 442 kts | 164° |
| 2026-05-06 17:48 | 54.17802 | 18.16901 | 36839 ft | 442 kts | 164° |
| 2026-05-06 17:49 | 54.12037 | 18.20721 | 36824 ft | 441 kts | 164° |
| 2026-05-06 17:49 | 54.06329 | 18.24492 | 36824 ft | 440 kts | 164° |
| 2026-05-06 17:50 | 54.00633 | 18.28245 | 36822 ft | 438 kts | 165° |
| 2026-05-06 17:50 | 53.94952 | 18.31975 | 36816 ft | 437 kts | 165° |
| 2026-05-06 17:51 | 53.89295 | 18.35680 | 36803 ft | 436 kts | 165° |
| 2026-05-06 17:51 | 53.83645 | 18.39368 | 36802 ft | 435 kts | 165° |
| 2026-05-06 17:52 | 53.78957 | 18.42421 | 36802 ft | 434 kts | 165° |
| 2026-05-06 17:52 | 53.73319 | 18.46081 | 36799 ft | 434 kts | 165° |
| 2026-05-06 17:53 | 53.67675 | 18.49735 | 36787 ft | 435 kts | 165° |
| 2026-05-06 17:53 | 53.61984 | 18.53409 | 36794 ft | 435 kts | 165° |
| 2026-05-06 17:54 | 53.56321 | 18.57055 | 36787 ft | 436 kts | 165° |
| 2026-05-06 17:54 | 53.50643 | 18.60700 | 36784 ft | 437 kts | 165° |
| 2026-05-06 17:55 | 53.44952 | 18.64343 | 36780 ft | 438 kts | 165° |
| 2026-05-06 17:55 | 53.39239 | 18.67989 | 36773 ft | 439 kts | 165° |
| 2026-05-06 17:56 | 53.33524 | 18.71628 | 36771 ft | 440 kts | 165° |
| 2026-05-06 17:56 | 53.27811 | 18.75254 | 36773 ft | 440 kts | 165° |
| 2026-05-06 17:57 | 53.22082 | 18.78880 | 36769 ft | 440 kts | 165° |
| 2026-05-06 17:57 | 53.16357 | 18.82492 | 36766 ft | 440 kts | 165° |
| 2026-05-06 17:58 | 53.10634 | 18.86094 | 36763 ft | 439 kts | 165° |
| 2026-05-06 17:58 | 53.04920 | 18.89679 | 36762 ft | 439 kts | 165° |
| 2026-05-06 17:59 | 52.99208 | 18.93253 | 36763 ft | 438 kts | 165° |
| 2026-05-06 17:59 | 52.93508 | 18.96810 | 36769 ft | 438 kts | 165° |
| 2026-05-06 18:00 | 52.87795 | 19.00363 | 36766 ft | 438 kts | 165° |
| 2026-05-06 18:00 | 52.82056 | 19.03924 | 36764 ft | 438 kts | 165° |
| 2026-05-06 18:01 | 52.76354 | 19.07451 | 36768 ft | 437 kts | 165° |
| 2026-05-06 18:01 | 52.70657 | 19.10966 | 36775 ft | 437 kts | 165° |
| 2026-05-06 18:02 | 52.64950 | 19.14476 | 36771 ft | 438 kts | 165° |
| 2026-05-06 18:02 | 52.59251 | 19.17972 | 36774 ft | 438 kts | 165° |
| 2026-05-06 18:03 | 52.53538 | 19.21467 | 36773 ft | 438 kts | 165° |
| 2026-05-06 18:03 | 52.47826 | 19.24952 | 36769 ft | 438 kts | 165° |
| 2026-05-06 18:04 | 52.42120 | 19.28423 | 36774 ft | 438 kts | 165° |
| 2026-05-06 18:04 | 52.36390 | 19.31899 | 36771 ft | 439 kts | 165° |
| 2026-05-06 18:05 | 52.30667 | 19.35362 | 36771 ft | 439 kts | 165° |
| 2026-05-06 18:05 | 52.24931 | 19.38822 | 36770 ft | 440 kts | 165° |
| 2026-05-06 18:06 | 52.19150 | 19.42301 | 36776 ft | 440 kts | 165° |
| 2026-05-06 18:06 | 52.13432 | 19.45732 | 36768 ft | 441 kts | 165° |
| 2026-05-06 18:07 | 52.07616 | 19.49209 | 36168 ft | 452 kts | 165° |
| 2026-05-06 18:07 | 52.04664 | 19.50969 | 35584 ft | 450 kts | 165° |
| 2026-05-06 18:07 | 52.01726 | 19.52724 | 34938 ft | 449 kts | 165° |
| 2026-05-06 18:08 | 51.98806 | 19.54467 | 34437 ft | 445 kts | 166° |
| 2026-05-06 18:08 | 51.95890 | 19.56203 | 33842 ft | 445 kts | 166° |
| 2026-05-06 18:08 | 51.92997 | 19.57922 | 33252 ft | 442 kts | 166° |
| 2026-05-06 18:08 | 51.90134 | 19.59622 | 32858 ft | 434 kts | 166° |
| 2026-05-06 18:09 | 51.87338 | 19.61282 | 32516 ft | 425 kts | 166° |
| 2026-05-06 18:09 | 51.84546 | 19.62931 | 31942 ft | 424 kts | 166° |
| 2026-05-06 18:09 | 51.81789 | 19.64558 | 31462 ft | 420 kts | 166° |
| 2026-05-06 18:09 | 51.79058 | 19.66153 | 31016 ft | 415 kts | 167° |
| 2026-05-06 18:10 | 51.76339 | 19.67613 | 30578 ft | 409 kts | 168° |
| 2026-05-06 18:10 | 51.73638 | 19.69014 | 30148 ft | 405 kts | 168° |
| 2026-05-06 18:10 | 51.70973 | 19.70405 | 29712 ft | 401 kts | 168° |
| 2026-05-06 18:10 | 51.68339 | 19.71788 | 29288 ft | 395 kts | 168° |
| 2026-05-06 18:11 | 51.65746 | 19.73153 | 28874 ft | 389 kts | 168° |
| 2026-05-06 18:11 | 51.63190 | 19.74496 | 28447 ft | 384 kts | 168° |
| 2026-05-06 18:11 | 51.60660 | 19.75823 | 28011 ft | 380 kts | 168° |
| 2026-05-06 18:11 | 51.58157 | 19.77134 | 27572 ft | 376 kts | 168° |
| 2026-05-06 18:12 | 51.55683 | 19.78428 | 27158 ft | 372 kts | 168° |
| 2026-05-06 18:12 | 51.53228 | 19.79712 | 26724 ft | 370 kts | 168° |
| 2026-05-06 18:12 | 51.50766 | 19.80999 | 26300 ft | 367 kts | 167° |
| 2026-05-06 18:12 | 51.48344 | 19.82270 | 25887 ft | 364 kts | 167° |
| 2026-05-06 18:13 | 51.45981 | 19.83510 | 25497 ft | 361 kts | 167° |
| 2026-05-06 18:13 | 51.43604 | 19.84754 | 25087 ft | 358 kts | 167° |
| 2026-05-06 18:13 | 51.41207 | 19.86003 | 24679 ft | 356 kts | 167° |
| 2026-05-06 18:13 | 51.38857 | 19.87223 | 24284 ft | 354 kts | 167° |
| 2026-05-06 18:14 | 51.36519 | 19.88436 | 23886 ft | 352 kts | 167° |
| 2026-05-06 18:14 | 51.34196 | 19.89642 | 23492 ft | 351 kts | 167° |
| 2026-05-06 18:14 | 51.31873 | 19.90848 | 23041 ft | 350 kts | 167° |
| 2026-05-06 18:14 | 51.29567 | 19.92045 | 22594 ft | 348 kts | 166° |
| 2026-05-06 18:15 | 51.27274 | 19.93235 | 22178 ft | 345 kts | 166° |
| 2026-05-06 18:15 | 51.25001 | 19.94413 | 21792 ft | 342 kts | 166° |
| 2026-05-06 18:15 | 51.22748 | 19.95579 | 21389 ft | 340 kts | 166° |
| 2026-05-06 18:15 | 51.20505 | 19.96736 | 21003 ft | 338 kts | 166° |
| 2026-05-06 18:16 | 51.18271 | 19.97885 | 20620 ft | 335 kts | 166° |
| 2026-05-06 18:16 | 51.16059 | 19.99021 | 20254 ft | 333 kts | 166° |
| 2026-05-06 18:16 | 51.13858 | 20.00152 | 19865 ft | 331 kts | 166° |
| 2026-05-06 18:16 | 51.11667 | 20.01275 | 19488 ft | 330 kts | 166° |
| 2026-05-06 18:17 | 51.09491 | 20.02390 | 19028 ft | 330 kts | 166° |
| 2026-05-06 18:17 | 51.07284 | 20.03517 | 18520 ft | 333 kts | 166° |
| 2026-05-06 18:17 | 51.05076 | 20.04645 | 18079 ft | 334 kts | 166° |
| 2026-05-06 18:17 | 51.02876 | 20.05771 | 17635 ft | 332 kts | 166° |
| 2026-05-06 18:18 | 51.00676 | 20.06895 | 17210 ft | 330 kts | 166° |
| 2026-05-06 18:18 | 50.98496 | 20.08008 | 16821 ft | 328 kts | 166° |
| 2026-05-06 18:18 | 50.96337 | 20.09108 | 16452 ft | 325 kts | 166° |
| 2026-05-06 18:18 | 50.94198 | 20.10198 | 16088 ft | 322 kts | 166° |
| 2026-05-06 18:19 | 50.92065 | 20.11199 | 15722 ft | 317 kts | 172° |
| 2026-05-06 18:19 | 50.89913 | 20.11597 | 15523 ft | 306 kts | 182° |
| 2026-05-06 18:19 | 50.87798 | 20.11582 | 15222 ft | 302 kts | 184° |
| 2026-05-06 18:19 | 50.85713 | 20.11502 | 14880 ft | 300 kts | 184° |
| 2026-05-06 18:20 | 50.83633 | 20.11411 | 14534 ft | 299 kts | 184° |
| 2026-05-06 18:20 | 50.81556 | 20.11322 | 14181 ft | 298 kts | 184° |
| 2026-05-06 18:20 | 50.79490 | 20.11240 | 13828 ft | 297 kts | 184° |
| 2026-05-06 18:20 | 50.77402 | 20.11163 | 13455 ft | 296 kts | 184° |
| 2026-05-06 18:21 | 50.75367 | 20.11091 | 13063 ft | 295 kts | 184° |
| 2026-05-06 18:21 | 50.73319 | 20.11022 | 12692 ft | 294 kts | 184° |
| 2026-05-06 18:21 | 50.71252 | 20.10955 | 12323 ft | 293 kts | 184° |